createdAt,value
2022-07-25T00:01:49.556Z,14.83
2022-07-25T00:04:20.953Z,14.83
2022-07-25T00:06:52.336Z,16.37
2022-07-25T00:09:22.499Z,15.87
2022-07-25T00:11:52.609Z,14.20
2022-07-25T00:14:25.306Z,15.17
2022-07-25T00:16:55.581Z,15.93
2022-07-25T00:19:25.658Z,14.90
2022-07-25T00:21:56.074Z,17.30
2022-07-25T00:24:26.239Z,16.03
2022-07-25T00:26:56.762Z,17.00
2022-07-25T00:29:30.108Z,15.20
2022-07-25T00:32:00.296Z,16.47
2022-07-25T00:34:30.374Z,14.70
2022-07-25T00:37:00.528Z,16.73
2022-07-25T00:39:30.938Z,15.77
2022-07-25T00:42:01.043Z,15.23
2022-07-25T00:44:36.392Z,15.50
2022-07-25T00:47:07.057Z,15.93
2022-07-25T00:49:37.174Z,16.37
2022-07-25T00:52:08.531Z,15.13
2022-07-25T00:54:38.884Z,16.47
2022-07-25T00:57:09.056Z,15.37
2022-07-25T00:59:41.775Z,14.17
2022-07-25T01:02:11.944Z,15.57
2022-07-25T01:04:43.075Z,15.83
2022-07-25T01:07:13.106Z,16.07
2022-07-25T01:09:43.289Z,16.80
2022-07-25T01:12:13.421Z,16.43
2022-07-25T01:14:46.358Z,16.50
2022-07-25T01:17:16.626Z,16.20
2022-07-25T01:19:47.318Z,17.70
2022-07-25T01:22:20.220Z,19.30
2022-07-25T01:24:50.381Z,16.53
2022-07-25T01:27:20.652Z,17.07
2022-07-25T01:29:50.732Z,16.90
2022-07-25T01:32:20.826Z,16.30
2022-07-25T01:34:50.988Z,16.57
2022-07-25T01:37:23.624Z,18.03
2022-07-25T01:39:53.721Z,17.30
2022-07-25T01:42:23.809Z,18.70
2022-07-25T01:44:54.120Z,17.07
2022-07-25T01:47:25.185Z,18.13
2022-07-25T01:49:55.296Z,17.20
2022-07-25T01:52:28.106Z,18.07
2022-07-25T01:54:58.496Z,18.47
2022-07-25T01:57:31.054Z,17.50
2022-07-25T02:00:02.501Z,18.17
2022-07-25T02:02:42.499Z,16.33
2022-07-25T02:05:15.836Z,18.13
2022-07-25T02:07:48.519Z,19.40
2022-07-25T02:10:18.619Z,18.17
2022-07-25T02:12:48.729Z,19.47
2022-07-25T02:15:18.822Z,17.80
2022-07-25T02:17:48.902Z,18.27
2022-07-25T02:20:19.103Z,18.60
2022-07-25T02:22:51.822Z,18.30
2022-07-25T02:25:22.810Z,19.77
2022-07-25T02:27:52.998Z,20.00
2022-07-25T02:30:23.154Z,18.53
2022-07-25T02:32:53.174Z,18.00
2022-07-25T02:35:23.755Z,21.83
2022-07-25T02:37:56.506Z,19.90
2022-07-25T02:40:26.667Z,22.13
2022-07-25T02:42:56.998Z,18.90
2022-07-25T02:45:27.133Z,20.07
2022-07-25T02:47:57.166Z,19.10
2022-07-25T02:50:27.269Z,20.33
2022-07-25T02:53:00.031Z,20.97
2022-07-25T02:55:31.539Z,19.53
2022-07-25T02:58:01.561Z,21.33
2022-07-25T03:00:31.945Z,19.67
2022-07-25T03:03:01.955Z,20.63
2022-07-25T03:05:34.443Z,19.97
2022-07-25T03:08:08.112Z,21.47
2022-07-25T03:10:39.048Z,21.27
2022-07-25T03:13:09.143Z,17.77
2022-07-25T03:15:39.337Z,19.40
2022-07-25T03:18:09.631Z,18.87
2022-07-25T03:20:44.063Z,20.87
2022-07-25T03:23:16.697Z,20.87
2022-07-25T03:25:46.807Z,19.63
2022-07-25T03:28:16.951Z,21.70
2022-07-25T03:30:47.158Z,22.23
2022-07-25T03:33:17.681Z,20.37
2022-07-25T03:35:48.108Z,21.90
2022-07-25T03:38:21.987Z,21.23
2022-07-25T03:40:51.998Z,20.73
2022-07-25T03:43:22.116Z,21.43
2022-07-25T03:45:52.210Z,20.73
2022-07-25T03:48:22.309Z,22.00
2022-07-25T03:50:52.359Z,20.77
2022-07-25T03:53:25.043Z,22.43
2022-07-25T03:55:55.259Z,21.50
2022-07-25T03:58:25.346Z,21.10
2022-07-25T04:00:55.488Z,21.30
2022-07-25T04:03:25.562Z,21.77
2022-07-25T04:05:55.569Z,20.60
2022-07-25T04:08:28.182Z,20.83
2022-07-25T04:10:58.265Z,21.00
2022-07-25T04:13:28.458Z,21.03
2022-07-25T04:15:58.546Z,22.17
2022-07-25T04:18:28.961Z,22.30
2022-07-25T04:20:59.484Z,21.20
2022-07-25T04:23:32.582Z,19.37
2022-07-25T04:26:02.928Z,19.70
2022-07-25T04:28:33.346Z,20.60
2022-07-25T04:31:03.684Z,20.83
2022-07-25T04:33:33.886Z,22.60
2022-07-25T04:36:03.880Z,19.43
2022-07-25T04:38:37.011Z,22.50
2022-07-25T04:41:08.394Z,20.93
2022-07-25T04:43:38.430Z,20.43
2022-07-25T04:46:08.918Z,19.40
2022-07-25T04:48:39.157Z,19.00
2022-07-25T04:51:11.326Z,18.80
2022-07-25T04:53:44.087Z,18.83
2022-07-25T04:56:14.244Z,18.67
2022-07-25T04:58:44.354Z,17.57
2022-07-25T05:01:14.559Z,17.97
2022-07-25T05:03:49.764Z,18.33
2022-07-25T05:06:21.013Z,17.90
2022-07-25T05:08:53.844Z,17.10
2022-07-25T05:11:23.901Z,17.27
2022-07-25T05:13:53.905Z,17.77
2022-07-25T05:16:24.160Z,17.77
2022-07-25T05:18:54.270Z,18.20
2022-07-25T05:21:24.374Z,19.03
2022-07-25T05:23:56.954Z,17.20
2022-07-25T05:26:26.950Z,18.13
2022-07-25T05:28:56.998Z,17.73
2022-07-25T05:31:27.180Z,17.50
2022-07-25T05:33:57.194Z,15.27
2022-07-25T05:36:27.463Z,17.70
2022-07-25T05:39:00.257Z,15.90
2022-07-25T05:41:30.681Z,16.17
2022-07-25T05:44:00.712Z,14.47
2022-07-25T05:46:31.154Z,15.83
2022-07-25T05:49:01.361Z,15.53
2022-07-25T05:51:31.639Z,15.23
2022-07-25T05:54:04.627Z,15.13
2022-07-25T05:56:35.091Z,15.40
2022-07-25T05:59:05.454Z,14.93
2022-07-25T06:01:35.857Z,15.67
2022-07-25T06:04:06.559Z,15.60
2022-07-25T06:06:36.917Z,16.30
2022-07-25T06:09:09.756Z,15.73
2022-07-25T06:11:54.519Z,16.30
2022-07-25T06:14:30.290Z,16.00
2022-07-25T06:17:01.094Z,16.20
2022-07-25T06:19:31.244Z,14.67
2022-07-25T06:22:01.253Z,14.93
2022-07-25T06:24:33.837Z,15.47
2022-07-25T06:27:03.876Z,14.97
2022-07-25T06:29:33.910Z,15.60
2022-07-25T06:32:03.946Z,15.43
2022-07-25T06:34:34.021Z,15.73
2022-07-25T06:37:04.032Z,15.90
2022-07-25T06:39:36.609Z,15.63
2022-07-25T06:42:07.249Z,15.77
2022-07-25T06:44:37.831Z,15.50
2022-07-25T06:47:12.641Z,15.53
2022-07-25T06:49:43.813Z,15.57
2022-07-25T06:52:14.154Z,15.63
2022-07-25T06:54:46.831Z,15.20
2022-07-25T06:57:17.137Z,15.90
2022-07-25T06:59:47.642Z,17.30
2022-07-25T07:02:17.936Z,17.07
2022-07-25T07:04:48.035Z,15.77
2022-07-25T07:07:19.092Z,16.17
2022-07-25T07:09:51.810Z,15.50
2022-07-25T07:12:21.885Z,15.90
2022-07-25T07:14:51.893Z,15.93
2022-07-25T07:17:21.966Z,15.30
2022-07-25T07:19:51.963Z,15.97
2022-07-25T07:22:22.366Z,14.03
2022-07-25T07:24:55.348Z,15.00
2022-07-25T07:27:26.160Z,16.00
2022-07-25T07:29:56.170Z,14.67
2022-07-25T07:32:26.443Z,14.63
2022-07-25T07:34:56.540Z,15.17
2022-07-25T07:37:30.382Z,15.30
2022-07-25T07:40:06.912Z,14.97
2022-07-25T07:42:43.313Z,14.57
2022-07-25T07:45:16.935Z,15.57
2022-07-25T07:47:48.750Z,15.27
2022-07-25T07:50:22.559Z,15.03
2022-07-25T07:52:55.301Z,15.00
2022-07-25T07:55:41.475Z,15.63
2022-07-25T07:58:11.577Z,14.40
2022-07-25T08:00:42.060Z,15.60
2022-07-25T08:03:12.276Z,15.80
2022-07-25T08:05:44.727Z,15.23
2022-07-25T08:08:16.857Z,13.73
2022-07-25T08:10:55.612Z,14.47
2022-07-25T08:13:34.091Z,14.50
2022-07-25T08:16:06.107Z,15.10
2022-07-25T08:18:36.640Z,16.00
2022-07-25T08:21:07.578Z,15.20
2022-07-25T08:23:39.151Z,15.80
2022-07-25T08:26:14.278Z,14.90
2022-07-25T08:28:45.122Z,13.63
2022-07-25T08:31:15.632Z,14.70
2022-07-25T08:33:45.790Z,15.43
2022-07-25T08:36:15.875Z,14.73
2022-07-25T08:38:46.020Z,13.90
2022-07-25T08:41:18.693Z,13.50
2022-07-25T08:43:55.443Z,14.60
2022-07-25T08:46:28.781Z,14.87
2022-07-25T08:49:00.011Z,14.80
2022-07-25T08:51:31.337Z,15.23
2022-07-25T08:54:02.180Z,12.80
2022-07-25T08:56:34.862Z,15.07
2022-07-25T08:59:05.034Z,14.67
2022-07-25T09:01:35.421Z,14.67
2022-07-25T09:04:07.244Z,14.40
2022-07-25T09:06:38.218Z,14.50
2022-07-25T09:09:08.741Z,15.47
2022-07-25T09:11:41.547Z,15.70
2022-07-25T09:14:15.474Z,14.87
2022-07-25T09:16:48.091Z,13.63
2022-07-25T09:19:22.070Z,13.37
2022-07-25T09:22:04.505Z,14.23
2022-07-25T09:24:36.231Z,12.20
2022-07-25T09:27:15.047Z,12.33
2022-07-25T09:29:45.367Z,13.10
2022-07-25T09:32:22.172Z,12.63
2022-07-25T09:34:53.830Z,13.03
2022-07-25T09:37:30.218Z,12.00
2022-07-25T09:40:00.434Z,13.70
2022-07-25T09:42:36.434Z,11.27
2022-07-25T09:45:12.974Z,10.60
2022-07-25T09:47:57.508Z,11.60
2022-07-25T09:50:32.173Z,12.70
2022-07-25T09:53:04.773Z,11.93
2022-07-25T09:55:35.060Z,11.93
2022-07-25T09:58:07.715Z,13.37
2022-07-25T10:00:37.930Z,12.83
2022-07-25T10:03:32.185Z,12.47
2022-07-25T10:06:24.263Z,12.90
2022-07-25T10:08:56.002Z,12.20
2022-07-25T10:11:29.993Z,12.70
2022-07-25T10:14:14.121Z,14.83
2022-07-25T10:16:50.146Z,12.37
2022-07-25T10:19:38.728Z,11.93
2022-07-25T10:22:08.837Z,11.50
2022-07-25T10:24:41.053Z,13.00
2022-07-25T10:27:16.908Z,11.87
2022-07-25T10:29:56.608Z,13.07
2022-07-25T10:32:35.965Z,12.43
2022-07-25T10:35:18.998Z,14.00
2022-07-25T10:37:50.010Z,12.53
2022-07-25T10:40:36.819Z,12.87
2022-07-25T10:43:16.590Z,12.83
2022-07-25T10:45:55.612Z,12.83
2022-07-25T10:48:28.902Z,12.83
2022-07-25T10:51:03.535Z,12.83
2022-07-25T10:53:41.033Z,13.03
2022-07-25T10:56:16.568Z,12.30
2022-07-25T10:58:50.841Z,12.70
2022-07-25T11:01:29.762Z,12.93
2022-07-25T11:04:02.873Z,12.10
2022-07-25T11:06:36.893Z,11.80
2022-07-25T11:09:19.268Z,12.03
2022-07-25T11:11:55.111Z,12.60
2022-07-25T11:14:28.314Z,12.13
2022-07-25T11:17:14.570Z,11.70
2022-07-25T11:19:47.176Z,12.30
2022-07-25T11:22:19.594Z,12.53
2022-07-25T11:24:50.925Z,11.73
2022-07-25T11:27:26.778Z,12.40
2022-07-25T11:30:08.385Z,11.90
2022-07-25T11:32:46.586Z,12.10
2022-07-25T11:35:19.376Z,11.93
2022-07-25T11:37:51.525Z,11.43
2022-07-25T11:40:23.238Z,11.90
2022-07-25T11:42:56.498Z,10.60
2022-07-25T11:45:29.548Z,9.60
2022-07-25T11:48:10.600Z,10.40
2022-07-25T11:50:43.336Z,7.80
2022-07-25T11:53:18.621Z,8.33
2022-07-25T11:55:48.653Z,6.50
2022-07-25T11:58:21.540Z,13.37
2022-07-25T12:00:52.974Z,13.23
2022-07-25T12:03:25.655Z,12.00
2022-07-25T12:05:55.810Z,12.13
2022-07-25T12:08:26.241Z,9.43
2022-07-25T12:10:56.290Z,9.00
2022-07-25T12:13:28.188Z,9.50
2022-07-25T12:16:00.409Z,7.87
2022-07-25T12:18:33.053Z,8.50
2022-07-25T12:21:03.196Z,11.53
2022-07-25T12:23:33.415Z,8.87
2022-07-25T12:26:03.931Z,7.60
2022-07-25T12:28:33.989Z,8.03
2022-07-25T12:31:04.474Z,8.70
2022-07-25T12:33:37.839Z,11.17
2022-07-25T12:36:08.792Z,12.93
2022-07-25T12:38:39.923Z,12.27
2022-07-25T12:41:13.458Z,12.47
2022-07-25T12:43:45.968Z,12.23
2022-07-25T12:46:16.096Z,12.83
2022-07-25T12:48:49.818Z,11.67
2022-07-25T12:51:20.245Z,12.80
2022-07-25T12:53:53.881Z,12.63
2022-07-25T12:56:23.916Z,10.43
2022-07-25T12:58:54.938Z,11.00
2022-07-25T13:01:25.066Z,10.27
2022-07-25T13:03:57.837Z,10.93
2022-07-25T13:06:27.980Z,10.73
2022-07-25T13:08:58.265Z,11.23
2022-07-25T13:11:28.343Z,10.47
2022-07-25T13:13:58.391Z,9.70
2022-07-25T13:16:30.328Z,10.57
2022-07-25T13:19:03.061Z,10.23
2022-07-25T13:21:34.735Z,9.53
2022-07-25T13:24:04.924Z,10.60
2022-07-25T13:26:35.819Z,11.03
2022-07-25T13:29:12.491Z,10.67
2022-07-25T13:31:47.363Z,10.53
2022-07-25T13:34:20.938Z,10.90
2022-07-25T13:36:51.053Z,10.80
2022-07-25T13:39:23.116Z,10.37
2022-07-25T13:41:53.315Z,10.20
2022-07-25T13:44:23.577Z,11.20
2022-07-25T13:46:53.834Z,11.40
2022-07-25T13:49:29.549Z,11.50
2022-07-25T13:51:59.674Z,10.90
2022-07-25T13:54:29.759Z,11.57
2022-07-25T13:57:00.059Z,11.77
2022-07-25T13:59:30.239Z,11.60
2022-07-25T14:02:00.483Z,12.00
2022-07-25T14:04:33.490Z,11.73
2022-07-25T14:07:10.357Z,11.57
2022-07-25T14:09:44.771Z,11.87
2022-07-25T14:12:20.449Z,11.43
2022-07-25T14:14:50.429Z,11.17
2022-07-25T14:17:20.834Z,11.10
2022-07-25T14:19:53.510Z,10.27
2022-07-25T14:22:23.784Z,10.30
2022-07-25T14:24:54.199Z,10.50
2022-07-25T14:27:25.297Z,11.13
2022-07-25T14:29:55.762Z,10.17
2022-07-25T14:32:26.384Z,11.20
2022-07-25T14:35:00.931Z,12.47
2022-07-25T14:37:31.790Z,13.27
2022-07-25T14:40:02.101Z,13.93
2022-07-25T14:42:33.114Z,12.00
2022-07-25T14:45:03.180Z,11.67
2022-07-25T14:47:33.177Z,11.23
2022-07-25T14:50:06.370Z,11.23
2022-07-25T14:52:36.494Z,11.63
2022-07-25T14:55:07.803Z,11.87
2022-07-25T14:57:37.882Z,13.23
2022-07-25T15:00:10.679Z,11.50
2022-07-25T15:02:40.751Z,11.20
2022-07-25T15:05:13.741Z,12.33
2022-07-25T15:07:44.016Z,12.47
2022-07-25T15:10:14.475Z,12.40
2022-07-25T15:12:44.829Z,13.50
2022-07-25T15:15:14.891Z,13.00
2022-07-25T15:17:44.949Z,11.97
2022-07-25T15:20:18.000Z,11.23
2022-07-25T15:22:48.032Z,12.47
2022-07-25T15:28:08.735Z,12.03
2022-07-25T15:30:38.871Z,11.70
2022-07-25T15:33:08.892Z,13.90
2022-07-25T15:35:41.602Z,12.27
2022-07-25T15:38:11.768Z,12.00
2022-07-25T15:40:41.984Z,12.87
2022-07-25T15:43:12.240Z,12.60
2022-07-25T15:45:44.004Z,13.33
2022-07-25T15:48:16.818Z,12.87
2022-07-25T15:50:52.436Z,11.13
2022-07-25T15:53:22.847Z,11.23
2022-07-25T15:55:53.594Z,12.50
2022-07-25T15:58:23.665Z,11.70
2022-07-25T16:00:53.732Z,13.63
2022-07-25T16:03:24.215Z,13.40
2022-07-25T16:05:57.266Z,11.60
2022-07-25T16:08:27.506Z,11.30
2022-07-25T16:10:57.515Z,12.60
2022-07-25T16:13:28.098Z,10.80
2022-07-25T16:15:58.226Z,12.57
2022-07-25T16:18:28.445Z,11.60
2022-07-25T16:21:01.183Z,12.10
2022-07-25T16:23:37.753Z,12.20
2022-07-25T16:26:08.946Z,12.20
2022-07-25T16:28:42.504Z,11.93
2022-07-25T16:31:12.806Z,11.10
2022-07-25T16:33:43.021Z,11.50
2022-07-25T16:36:16.734Z,12.80
2022-07-25T16:38:49.206Z,11.10
2022-07-25T16:41:20.186Z,12.93
2022-07-25T16:43:50.540Z,12.80
2022-07-25T16:46:22.759Z,12.20
2022-07-25T16:48:55.792Z,12.27
2022-07-25T16:51:28.470Z,12.10
2022-07-25T16:53:58.840Z,12.00
2022-07-25T16:56:29.337Z,10.40
2022-07-25T16:59:00.917Z,11.40
2022-07-25T17:01:31.083Z,11.33
2022-07-25T17:04:01.567Z,11.37
2022-07-25T17:06:34.481Z,11.60
2022-07-25T17:09:04.971Z,11.00
2022-07-25T17:11:35.340Z,11.87
2022-07-25T17:14:08.618Z,11.20
2022-07-25T17:16:38.848Z,11.30
2022-07-25T17:19:09.350Z,10.53
2022-07-25T17:21:42.748Z,10.27
2022-07-25T17:24:12.842Z,10.20
2022-07-25T17:26:45.986Z,11.63
2022-07-25T17:29:17.106Z,11.03
2022-07-25T17:31:47.294Z,10.27
2022-07-25T17:34:17.941Z,10.00
2022-07-25T17:36:50.817Z,10.67
2022-07-25T17:39:20.932Z,11.03
2022-07-25T17:41:52.062Z,9.73
2022-07-25T17:44:22.276Z,9.60
2022-07-25T17:46:54.427Z,9.40
2022-07-25T17:49:24.946Z,10.17
2022-07-25T17:51:57.643Z,10.10
2022-07-25T17:54:27.763Z,9.83
2022-07-25T17:56:58.580Z,10.10
2022-07-25T17:59:28.896Z,9.30
2022-07-25T18:01:59.057Z,8.87
2022-07-25T18:04:29.322Z,9.73
2022-07-25T18:07:02.147Z,9.70
2022-07-25T18:09:32.673Z,9.23
2022-07-25T18:12:04.089Z,9.30
2022-07-25T18:14:36.558Z,9.40
2022-07-25T18:17:07.529Z,9.57
2022-07-25T18:19:38.195Z,8.90
2022-07-25T18:22:11.110Z,9.47
2022-07-25T18:24:41.152Z,9.73
2022-07-25T18:27:11.292Z,9.40
2022-07-25T18:29:41.610Z,9.07
2022-07-25T18:32:11.822Z,9.17
2022-07-25T18:34:41.917Z,9.10
2022-07-25T18:37:14.771Z,9.87
2022-07-25T18:39:45.145Z,27.27
2022-07-25T18:42:15.244Z,9.90
2022-07-25T18:44:45.433Z,9.23
2022-07-25T18:47:15.886Z,10.30
2022-07-25T18:49:46.032Z,9.67
2022-07-25T18:52:19.164Z,9.50
2022-07-25T18:54:49.279Z,9.60
2022-07-25T18:57:20.307Z,10.27
2022-07-25T18:59:51.068Z,9.13
2022-07-25T19:02:21.257Z,8.00
2022-07-25T19:04:51.469Z,8.40
2022-07-25T19:07:26.169Z,7.43
2022-07-25T19:09:56.153Z,7.60
2022-07-25T19:12:27.436Z,7.37
2022-07-25T19:14:58.316Z,7.20
2022-07-25T19:17:28.825Z,7.23
2022-07-25T19:20:06.509Z,7.03
2022-07-25T19:22:48.701Z,7.37
2022-07-25T19:25:18.932Z,7.90
2022-07-25T19:27:49.248Z,6.73
2022-07-25T19:30:20.859Z,7.10
2022-07-25T19:32:50.946Z,6.00
2022-07-25T19:35:26.044Z,6.10
2022-07-25T19:37:59.483Z,5.10
2022-07-25T19:40:29.526Z,5.67
2022-07-25T19:42:59.857Z,5.90
2022-07-25T19:45:35.108Z,6.23
2022-07-25T19:48:13.036Z,5.20
2022-07-25T19:50:59.173Z,6.20
2022-07-25T19:53:34.235Z,5.70
2022-07-25T19:56:09.316Z,5.57
2022-07-25T19:58:40.553Z,5.33
2022-07-25T20:01:13.989Z,5.53
2022-07-25T20:03:44.578Z,5.20
2022-07-25T20:06:14.674Z,5.50
2022-07-25T20:08:47.323Z,5.57
2022-07-25T20:11:18.547Z,5.70
2022-07-25T20:13:48.735Z,4.90
2022-07-25T20:16:18.890Z,4.97
2022-07-25T20:18:48.997Z,5.30
2022-07-25T20:21:20.617Z,5.33
2022-07-25T20:23:53.401Z,5.90
2022-07-25T20:26:23.588Z,5.33
2022-07-25T20:28:53.910Z,5.40
2022-07-25T20:31:24.857Z,4.70
2022-07-25T20:33:55.597Z,4.40
2022-07-25T20:36:25.749Z,5.50
2022-07-25T20:38:58.705Z,5.00
2022-07-25T20:41:29.392Z,4.77
2022-07-25T20:43:59.650Z,5.27
2022-07-25T20:46:35.750Z,4.93
2022-07-25T20:49:09.156Z,5.27
2022-07-25T20:51:40.524Z,5.53
2022-07-25T20:54:14.742Z,5.57
2022-07-25T20:56:44.849Z,4.57
2022-07-25T20:59:15.620Z,4.77
2022-07-25T21:01:46.023Z,4.80
2022-07-25T21:04:17.100Z,5.90
2022-07-25T21:06:47.696Z,5.03
2022-07-25T21:09:21.025Z,5.23
2022-07-25T21:11:51.373Z,4.40
2022-07-25T21:14:21.471Z,4.10
2022-07-25T21:16:51.642Z,5.00
2022-07-25T21:19:21.827Z,4.70
2022-07-25T21:21:52.002Z,4.70
2022-07-25T21:24:24.849Z,5.17
2022-07-25T21:26:55.110Z,4.53
2022-07-25T21:29:25.240Z,4.70
2022-07-25T21:31:55.462Z,4.27
2022-07-25T21:34:25.745Z,4.20
2022-07-25T21:36:55.775Z,4.27
2022-07-25T21:39:28.611Z,4.33
2022-07-25T21:41:59.124Z,5.00
2022-07-25T21:44:31.089Z,4.30
2022-07-25T21:47:01.115Z,4.47
2022-07-25T21:49:43.727Z,4.60
2022-07-25T21:52:15.068Z,4.27
2022-07-25T21:54:48.521Z,3.93
2022-07-25T21:57:19.459Z,4.50
2022-07-25T21:59:50.009Z,4.03
2022-07-25T22:02:20.136Z,4.33
2022-07-25T22:04:50.393Z,3.70
2022-07-25T22:07:21.091Z,4.37
2022-07-25T22:09:54.026Z,3.70
2022-07-25T22:12:24.147Z,3.47
2022-07-25T22:14:54.189Z,4.03
2022-07-25T22:17:24.275Z,3.73
2022-07-25T22:19:54.549Z,3.50
2022-07-25T22:22:24.783Z,4.37
2022-07-25T22:24:57.428Z,3.70
2022-07-25T22:27:27.674Z,3.70
2022-07-25T22:29:57.762Z,4.37
2022-07-25T22:32:27.979Z,3.37
2022-07-25T22:34:58.157Z,4.60
2022-07-25T22:37:28.231Z,6.03
2022-07-25T22:40:06.488Z,3.50
2022-07-25T22:42:36.677Z,3.60
2022-07-25T22:45:08.430Z,4.10
2022-07-25T22:47:38.621Z,3.50
2022-07-25T22:50:11.494Z,3.30
2022-07-25T22:52:41.650Z,4.07
2022-07-25T22:55:14.576Z,3.60
2022-07-25T22:57:44.776Z,3.90
2022-07-25T23:00:16.485Z,3.50
2022-07-25T23:02:46.743Z,4.30
2022-07-25T23:05:16.882Z,3.40
2022-07-25T23:07:46.958Z,3.67
2022-07-25T23:10:20.096Z,4.03
2022-07-25T23:12:50.271Z,3.80
2022-07-25T23:15:20.444Z,4.27
2022-07-25T23:17:50.444Z,4.30
2022-07-25T23:20:20.560Z,4.53
2022-07-25T23:22:51.558Z,4.50
2022-07-25T23:25:29.148Z,4.47
2022-07-25T23:27:59.287Z,3.53
2022-07-25T23:30:29.407Z,3.80
2022-07-25T23:32:59.498Z,3.70
2022-07-25T23:35:29.783Z,3.50
2022-07-25T23:37:59.793Z,3.87
2022-07-25T23:40:33.180Z,5.10
2022-07-25T23:43:03.246Z,3.97
2022-07-25T23:45:33.667Z,4.17
2022-07-25T23:48:04.101Z,3.33
2022-07-25T23:50:34.320Z,3.33
2022-07-25T23:53:04.505Z,4.00
2022-07-25T23:55:37.202Z,3.63
2022-07-25T23:58:07.345Z,3.80
